Time;durP1;ratioP1;P1;durP2;ratioP2;P2;SDS_P1;SDS_P2;PMS_P1;PMS_P2;Temp;Humidity;BMP_temperature;BMP_pressure;BME280_temperature;BME280_humidity;BME280_pressure;Samples;Min_cycle;Max_cycle;Signal;HPM_P1;HPM_P2
2023/11/12 00:01:18;;;;;;;58.25;18.58;;;;;;;;;;6261735;28;20594;-70
2023/11/12 00:04:20;;;;;;;46.80;23.13;;;;;;;;;;6261403;28;20049;-70
2023/11/12 00:07:22;;;;;;;36.42;17.67;;;;;;;;;;6254710;28;20156;-70
2023/11/12 00:10:25;;;;;;;22.40;11.13;;;;;;;;;;6260826;28;20041;-70
2023/11/12 00:13:27;;;;;;;27.40;13.55;;;;;;;;;;6242326;28;20036;-69
2023/11/12 00:16:29;;;;;;;12.40;5.22;;;;;;;;;;6260940;28;20493;-69
2023/11/12 00:19:32;;;;;;;11.18;6.72;;;;;;;;;;6255657;28;20045;-69
2023/11/12 00:22:35;;;;;;;13.25;8.90;;;;;;;;;;6260548;28;20728;-69
2023/11/12 00:25:36;;;;;;;6.47;5.60;;;;;;;;;;6248490;28;20041;-69
2023/11/12 00:28:40;;;;;;;6.45;3.75;;;;;;;;;;6261240;28;20041;-69
2023/11/12 00:31:42;;;;;;;29.60;13.75;;;;;;;;;;6260135;28;20060;-70
2023/11/12 00:34:44;;;;;;;5.63;3.65;;;;;;;;;;6243757;28;20068;-69
2023/11/12 00:37:47;;;;;;;42.95;19.77;;;;;;;;;;6260611;28;20543;-70
2023/11/12 00:40:49;;;;;;;14.57;9.90;;;;;;;;;;6253370;28;20080;-68
2023/11/12 00:43:51;;;;;;;4.28;3.03;;;;;;;;;;6258898;28;20052;-69
2023/11/12 00:46:53;;;;;;;3.80;2.25;;;;;;;;;;6261389;28;20092;-69
2023/11/12 00:49:56;;;;;;;3.97;2.80;;;;;;;;;;6230636;28;20071;-69
2023/11/12 00:52:58;;;;;;;5.55;3.38;;;;;;;;;;6256821;28;20045;-69
2023/11/12 00:56:00;;;;;;;9.80;4.97;;;;;;;;;;6242092;28;20044;-69
2023/11/12 00:59:05;;;;;;;8.88;4.70;;;;;;;;;;6253943;28;20167;-69
2023/11/12 01:02:09;;;;;;;5.55;3.38;;;;;;;;;;6260893;28;20131;-69
2023/11/12 01:05:12;;;;;;;7.03;4.82;;;;;;;;;;6255051;28;20071;-69
2023/11/12 01:08:14;;;;;;;6.72;5.32;;;;;;;;;;6255149;28;20053;-69
2023/11/12 01:11:16;;;;;;;10.30;4.95;;;;;;;;;;6253877;28;20593;-69
2023/11/12 01:14:18;;;;;;;5.20;3.63;;;;;;;;;;6263176;28;20056;-69
2023/11/12 01:17:20;;;;;;;4.07;3.28;;;;;;;;;;6238051;28;20130;-69
2023/11/12 01:20:22;;;;;;;3.80;2.45;;;;;;;;;;6256184;28;20049;-69
2023/11/12 01:23:25;;;;;;;3.13;2.13;;;;;;;;;;6257868;28;20045;-69
2023/11/12 01:26:27;;;;;;;5.47;3.15;;;;;;;;;;6237933;28;20051;-69
2023/11/12 01:29:29;;;;;;;3.95;2.55;;;;;;;;;;6242042;28;20073;-68
2023/11/12 01:32:32;;;;;;;7.72;3.60;;;;;;;;;;6251938;28;20057;-68
2023/11/12 01:35:35;;;;;;;3.70;2.35;;;;;;;;;;6257942;28;20052;-68
2023/11/12 01:38:37;;;;;;;5.47;2.92;;;;;;;;;;6253826;28;20041;-68
2023/11/12 01:41:40;;;;;;;4.32;2.25;;;;;;;;;;6259303;28;20049;-68
2023/11/12 01:44:42;;;;;;;3.83;2.53;;;;;;;;;;6241657;28;20048;-68
2023/11/12 01:47:46;;;;;;;3.35;2.45;;;;;;;;;;6259289;28;20135;-69
2023/11/12 01:50:48;;;;;;;4.18;3.65;;;;;;;;;;6240509;28;20049;-69
2023/11/12 01:53:53;;;;;;;6.45;2.88;;;;;;;;;;6250335;28;20045;-68
2023/11/12 01:56:56;;;;;;;3.45;2.20;;;;;;;;;;6259767;28;20774;-69
2023/11/12 01:59:58;;;;;;;5.78;2.25;;;;;;;;;;6235223;28;20056;-69
2023/11/12 02:03:02;;;;;;;3.50;2.67;;;;;;;;;;6256820;28;20045;-69
2023/11/12 02:06:05;;;;;;;4.38;2.60;;;;;;;;;;6243716;28;20167;-69
2023/11/12 02:09:07;;;;;;;5.97;3.90;;;;;;;;;;6242779;28;20053;-69
2023/11/12 02:12:13;;;;;;;4.97;3.03;;;;;;;;;;6242828;28;20040;-69
2023/11/12 02:15:17;;;;;;;4.35;3.17;;;;;;;;;;6251560;28;20603;-68
2023/11/12 02:18:21;;;;;;;2.92;2.45;;;;;;;;;;6251131;28;20061;-69
2023/11/12 02:21:26;;;;;;;2.50;1.92;;;;;;;;;;6242812;28;20137;-69
2023/11/12 02:24:28;;;;;;;4.30;2.63;;;;;;;;;;6260033;28;20044;-69
2023/11/12 02:27:31;;;;;;;3.83;1.63;;;;;;;;;;6260575;28;20053;-69
2023/11/12 02:30:33;;;;;;;5.25;2.97;;;;;;;;;;6260879;28;20053;-68
2023/11/12 02:33:35;;;;;;;10.23;5.47;;;;;;;;;;6238425;28;20052;-69
2023/11/12 02:36:38;;;;;;;4.32;2.53;;;;;;;;;;6260434;28;20048;-69
2023/11/12 02:39:43;;;;;;;3.50;2.33;;;;;;;;;;6243253;28;20057;-69
2023/11/12 02:42:45;;;;;;;4.20;3.05;;;;;;;;;;6242995;28;20110;-69
2023/11/12 02:45:47;;;;;;;3.92;2.72;;;;;;;;;;6236322;28;20041;-68
2023/11/12 02:49:19;;;;;;;3.28;2.30;;;;;;;;;;6246253;28;20110;-69
2023/11/12 02:52:21;;;;;;;4.07;3.13;;;;;;;;;;6261239;28;20033;-68
2023/11/12 02:55:23;;;;;;;3.13;2.70;;;;;;;;;;6265755;28;20136;-68
2023/11/12 02:58:25;;;;;;;3.65;2.33;;;;;;;;;;6265260;28;20057;-69
2023/11/12 03:01:27;;;;;;;3.65;2.70;;;;;;;;;;6265282;28;20049;-68
2023/11/12 03:04:29;;;;;;;3.90;3.17;;;;;;;;;;6247168;28;20049;-68
2023/11/12 03:07:31;;;;;;;3.85;2.63;;;;;;;;;;6264370;28;20890;-68
2023/11/12 03:10:33;;;;;;;3.33;2.28;;;;;;;;;;6247590;28;20053;-68
2023/11/12 03:13:35;;;;;;;5.10;2.05;;;;;;;;;;6264489;28;20506;-68
2023/11/12 03:16:38;;;;;;;3.67;2.85;;;;;;;;;;6265280;28;20128;-69
2023/11/12 03:19:40;;;;;;;3.25;2.40;;;;;;;;;;6260100;28;20053;-68
2023/11/12 03:22:42;;;;;;;3.70;2.45;;;;;;;;;;6264769;28;20041;-68
2023/11/12 03:25:46;;;;;;;4.07;3.20;;;;;;;;;;6264337;28;20040;-69
2023/11/12 03:28:48;;;;;;;4.40;3.88;;;;;;;;;;6239505;28;20106;-69
2023/11/12 03:31:53;;;;;;;6.13;3.10;;;;;;;;;;6238163;28;20198;-68
2023/11/12 03:34:55;;;;;;;6.75;4.00;;;;;;;;;;6264406;28;20045;-69
2023/11/12 03:37:57;;;;;;;4.18;3.15;;;;;;;;;;6244796;28;20076;-70
2023/11/12 03:40:59;;;;;;;5.30;2.92;;;;;;;;;;6246310;28;20056;-69
2023/11/12 03:44:04;;;;;;;7.97;3.20;;;;;;;;;;6262571;28;20613;-70
2023/11/12 03:47:06;;;;;;;6.32;2.97;;;;;;;;;;6263902;28;20846;-70
2023/11/12 03:50:08;;;;;;;8.38;6.65;;;;;;;;;;6264361;28;20057;-69
2023/11/12 03:53:10;;;;;;;5.57;3.70;;;;;;;;;;6245768;28;20585;-69
2023/11/12 03:56:12;;;;;;;6.57;3.00;;;;;;;;;;6263924;28;20847;-69
2023/11/12 03:59:15;;;;;;;4.97;2.83;;;;;;;;;;6244891;28;20045;-69
2023/11/12 04:02:19;;;;;;;4.47;2.58;;;;;;;;;;6247788;28;20436;-69
2023/11/12 04:05:21;;;;;;;4.20;2.80;;;;;;;;;;6230165;28;20057;-69
2023/11/12 04:08:23;;;;;;;4.72;2.90;;;;;;;;;;6263195;28;20048;-69
2023/11/12 04:11:26;;;;;;;4.03;2.70;;;;;;;;;;6244692;28;20063;-69
2023/11/12 04:14:28;;;;;;;4.28;2.70;;;;;;;;;;6252292;28;20067;-69
2023/11/12 04:17:31;;;;;;;4.82;3.45;;;;;;;;;;6254741;28;20515;-69
2023/11/12 04:20:34;;;;;;;3.60;2.28;;;;;;;;;;6263489;28;20049;-68
2023/11/12 04:23:36;;;;;;;4.45;2.88;;;;;;;;;;6248000;28;20049;-69
2023/11/12 04:26:37;;;;;;;3.63;2.83;;;;;;;;;;6262662;28;20033;-69
2023/11/12 04:29:40;;;;;;;4.32;2.78;;;;;;;;;;6263011;28;20040;-69
2023/11/12 04:32:42;;;;;;;4.55;3.22;;;;;;;;;;6263131;28;20584;-69
2023/11/12 04:56:28;;;;;;;26.98;12.73;;;;;;;;;;6330986;27;20715;-66
2023/11/12 04:59:31;;;;;;;9.52;6.43;;;;;;;;;;6311825;28;20048;-66
2023/11/12 05:02:33;;;;;;;6.38;4.35;;;;;;;;;;6303731;28;20059;-66
2023/11/12 05:05:36;;;;;;;6.68;4.65;;;;;;;;;;6274695;28;20044;-66
2023/11/12 05:08:38;;;;;;;8.45;4.22;;;;;;;;;;6311861;28;20040;-66
2023/11/12 05:11:40;;;;;;;6.22;5.25;;;;;;;;;;6309519;28;20039;-66
2023/11/12 05:14:42;;;;;;;6.72;3.80;;;;;;;;;;6309946;28;20633;-67
2023/11/12 05:17:44;;;;;;;11.40;5.53;;;;;;;;;;6305566;28;20044;-66
2023/11/12 05:20:47;;;;;;;5.28;4.10;;;;;;;;;;6306153;28;20446;-66
2023/11/12 05:23:49;;;;;;;5.03;4.03;;;;;;;;;;6300962;28;20048;-65
2023/11/12 05:26:52;;;;;;;5.38;3.15;;;;;;;;;;6306985;28;20044;-65
2023/11/12 05:29:54;;;;;;;4.97;3.30;;;;;;;;;;6303438;28;20048;-66
2023/11/12 05:32:57;;;;;;;5.28;4.47;;;;;;;;;;6305114;28;20441;-66
2023/11/12 05:35:59;;;;;;;4.50;3.40;;;;;;;;;;6305024;28;20040;-65
2023/11/12 05:39:01;;;;;;;10.30;6.35;;;;;;;;;;6304300;28;20044;-66
2023/11/12 05:42:04;;;;;;;13.68;8.15;;;;;;;;;;6303126;28;20081;-66
2023/11/12 05:45:06;;;;;;;18.05;11.25;;;;;;;;;;6301282;28;20040;-66
2023/11/12 05:48:10;;;;;;;11.65;8.45;;;;;;;;;;6306321;28;20040;-66
2023/11/12 05:51:12;;;;;;;14.38;8.73;;;;;;;;;;6317708;28;20514;-66
2023/11/12 05:54:14;;;;;;;18.45;11.02;;;;;;;;;;6316458;28;20070;-65
2023/11/12 05:57:18;;;;;;;20.48;11.32;;;;;;;;;;6289425;28;20041;-65
2023/11/12 06:00:21;;;;;;;15.45;10.60;;;;;;;;;;6294454;28;20049;-66
2023/11/12 06:03:23;;;;;;;12.10;6.43;;;;;;;;;;6298311;28;20125;-66
2023/11/12 06:06:26;;;;;;;9.65;5.50;;;;;;;;;;6288404;28;20067;-66
2023/11/12 06:09:28;;;;;;;6.97;5.55;;;;;;;;;;6287992;28;20117;-66
2023/11/12 06:12:30;;;;;;;9.07;6.70;;;;;;;;;;6295509;28;20040;-64
2023/11/12 06:15:32;;;;;;;11.27;7.47;;;;;;;;;;6299233;28;20055;-65
2023/11/12 06:18:34;;;;;;;18.30;10.50;;;;;;;;;;6279563;28;20083;-65
2023/11/12 06:21:36;;;;;;;9.00;6.30;;;;;;;;;;6288263;28;20868;-65
2023/11/12 06:24:38;;;;;;;7.10;4.57;;;;;;;;;;6269770;28;20048;-67
2023/11/12 06:27:40;;;;;;;10.18;6.22;;;;;;;;;;6298687;28;20189;-64
2023/11/12 06:30:43;;;;;;;10.85;9.27;;;;;;;;;;6301604;28;20079;-65
2023/11/12 06:33:45;;;;;;;15.40;8.63;;;;;;;;;;6288518;28;20055;-65
2023/11/12 06:36:48;;;;;;;18.40;13.82;;;;;;;;;;6292856;28;20045;-65
2023/11/12 06:39:50;;;;;;;12.10;7.00;;;;;;;;;;6293831;28;20060;-65
2023/11/12 06:42:54;;;;;;;18.55;9.63;;;;;;;;;;6293858;28;20060;-65
2023/11/12 06:45:56;;;;;;;12.10;8.05;;;;;;;;;;6272165;28;20036;-67
2023/11/12 06:48:58;;;;;;;8.40;5.38;;;;;;;;;;6259504;28;20055;-66
2023/11/12 06:52:00;;;;;;;6.53;4.95;;;;;;;;;;6287559;28;20057;-66
2023/11/12 06:55:04;;;;;;;7.30;4.75;;;;;;;;;;6302245;28;20130;-67
2023/11/12 06:58:06;;;;;;;7.63;5.03;;;;;;;;;;6300770;28;20059;-66
2023/11/12 07:01:08;;;;;;;21.77;12.10;;;;;;;;;;6300492;28;20637;-65
2023/11/12 07:04:10;;;;;;;13.30;9.18;;;;;;;;;;6290513;28;20036;-66
2023/11/12 07:07:13;;;;;;;10.93;8.38;;;;;;;;;;6294567;28;20378;-66
2023/11/12 07:10:19;;;;;;;14.52;10.43;;;;;;;;;;6295766;28;20129;-68
2023/11/12 07:13:21;;;;;;;11.73;6.75;;;;;;;;;;6307023;28;20058;-66
2023/11/12 07:16:23;;;;;;;12.18;6.68;;;;;;;;;;6280187;28;20050;-66
2023/11/12 07:19:25;;;;;;;11.73;6.85;;;;;;;;;;6289192;28;20052;-66
2023/11/12 07:22:28;;;;;;;10.90;8.32;;;;;;;;;;6281457;28;20105;-66
2023/11/12 07:25:30;;;;;;;11.05;8.07;;;;;;;;;;6291416;28;20159;-67
2023/11/12 07:28:32;;;;;;;24.25;14.38;;;;;;;;;;6299362;28;20044;-65
2023/11/12 07:31:34;;;;;;;13.50;9.30;;;;;;;;;;6299926;28;20040;-66
2023/11/12 07:34:36;;;;;;;17.40;10.07;;;;;;;;;;6271346;28;20048;-66
2023/11/12 07:37:40;;;;;;;10.68;6.80;;;;;;;;;;6285659;28;20055;-67
2023/11/12 07:40:42;;;;;;;10.02;6.53;;;;;;;;;;6279686;28;20056;-67
2023/11/12 07:43:44;;;;;;;9.00;5.78;;;;;;;;;;6287968;28;20570;-66
2023/11/12 07:46:46;;;;;;;11.00;7.50;;;;;;;;;;6281043;28;20056;-66
2023/11/12 07:49:48;;;;;;;12.52;7.05;;;;;;;;;;6280357;28;20056;-66
2023/11/12 07:52:50;;;;;;;10.75;8.70;;;;;;;;;;6279709;28;20044;-66
2023/11/12 07:55:53;;;;;;;14.88;9.45;;;;;;;;;;6276532;28;20044;-66
2023/11/12 07:58:55;;;;;;;11.35;9.57;;;;;;;;;;6283224;28;20056;-66
2023/11/12 08:01:57;;;;;;;8.80;6.70;;;;;;;;;;6282824;28;20657;-66
2023/11/12 08:05:03;;;;;;;10.88;7.32;;;;;;;;;;6286284;28;20541;-66
2023/11/12 08:08:05;;;;;;;21.13;14.18;;;;;;;;;;6285715;28;20045;-66
2023/11/12 08:11:07;;;;;;;18.30;12.48;;;;;;;;;;6286885;28;20861;-66
2023/11/12 08:14:09;;;;;;;18.20;12.73;;;;;;;;;;6290619;28;20135;-67
2023/11/12 08:17:12;;;;;;;21.20;13.48;;;;;;;;;;6281891;28;20052;-66
2023/11/12 08:20:15;;;;;;;16.85;9.63;;;;;;;;;;6290169;28;20557;-66
2023/11/12 08:23:17;;;;;;;9.77;6.93;;;;;;;;;;6298462;28;20047;-66
2023/11/12 08:26:20;;;;;;;9.13;6.28;;;;;;;;;;6287429;28;20044;-66
2023/11/12 08:29:22;;;;;;;7.95;5.43;;;;;;;;;;6296262;28;20187;-66
2023/11/12 08:32:24;;;;;;;10.07;5.10;;;;;;;;;;6286884;28;20036;-66
2023/11/12 08:35:29;;;;;;;7.72;6.15;;;;;;;;;;6293507;28;20056;-66
2023/11/12 08:38:34;;;;;;;10.30;6.93;;;;;;;;;;6299003;28;20048;-66
2023/11/12 08:41:37;;;;;;;9.05;5.85;;;;;;;;;;6285034;28;20580;-67
2023/11/12 08:44:38;;;;;;;11.75;7.65;;;;;;;;;;6286178;28;20109;-66
2023/11/12 08:47:41;;;;;;;6.07;4.70;;;;;;;;;;6296487;28;20048;-67
2023/11/12 08:50:43;;;;;;;11.32;7.50;;;;;;;;;;6296284;28;20781;-66
2023/11/12 08:53:45;;;;;;;10.43;7.15;;;;;;;;;;6296806;28;20056;-67
2023/11/12 08:56:47;;;;;;;6.95;5.95;;;;;;;;;;6285607;28;20041;-67
2023/11/12 08:59:51;;;;;;;14.32;9.02;;;;;;;;;;6299445;28;20054;-66
2023/11/12 09:02:54;;;;;;;11.32;6.13;;;;;;;;;;6290317;28;20048;-66
2023/11/12 09:05:56;;;;;;;6.10;3.13;;;;;;;;;;6297837;28;20041;-66
2023/11/12 09:08:58;;;;;;;5.60;4.13;;;;;;;;;;6299169;28;20052;-66
2023/11/12 09:12:00;;;;;;;6.60;3.95;;;;;;;;;;6286122;28;20055;-67
2023/11/12 09:15:02;;;;;;;10.95;7.85;;;;;;;;;;6287868;28;20037;-66
2023/11/12 09:18:04;;;;;;;11.38;5.88;;;;;;;;;;6298745;28;20585;-67
2023/11/12 09:21:07;;;;;;;8.73;4.82;;;;;;;;;;6294320;28;20048;-66
2023/11/12 09:24:09;;;;;;;11.00;7.38;;;;;;;;;;6302535;28;20561;-66
2023/11/12 09:27:11;;;;;;;9.07;5.35;;;;;;;;;;6283785;28;20151;-66
2023/11/12 09:30:13;;;;;;;8.75;6.35;;;;;;;;;;6283938;28;20056;-66
2023/11/12 09:33:15;;;;;;;14.73;7.90;;;;;;;;;;6289040;28;20048;-66
2023/11/12 09:36:17;;;;;;;12.52;6.30;;;;;;;;;;6290032;28;20056;-65
2023/11/12 09:39:23;;;;;;;14.23;8.75;;;;;;;;;;6294774;28;20051;-65
2023/11/12 09:42:27;;;;;;;9.80;5.50;;;;;;;;;;6291739;28;20813;-66
2023/11/12 09:45:29;;;;;;;7.70;4.00;;;;;;;;;;6292648;28;20071;-66
2023/11/12 09:48:39;;;;;;;29.55;14.57;;;;;;;;;;6267277;28;20063;-66
2023/11/12 09:51:42;;;;;;;10.32;6.60;;;;;;;;;;6292208;28;20268;-65
2023/11/12 09:54:45;;;;;;;6.07;3.25;;;;;;;;;;6268408;28;20131;-65
2023/11/12 09:57:51;;;;;;;5.80;2.85;;;;;;;;;;6271194;28;20202;-66
2023/11/12 10:00:56;;;;;;;4.10;2.15;;;;;;;;;;6288209;28;20072;-66
2023/11/12 10:03:58;;;;;;;3.40;1.95;;;;;;;;;;6274946;28;20036;-66
2023/11/12 10:07:01;;;;;;;8.07;5.57;;;;;;;;;;6289824;28;20055;-66
2023/11/12 10:10:20;;;;;;;5.43;2.72;;;;;;;;;;6292489;28;20060;-66
2023/11/12 10:13:35;;;;;;;4.18;2.45;;;;;;;;;;6285578;28;20053;-66
2023/11/12 10:16:37;;;;;;;4.40;1.40;;;;;;;;;;6294362;28;20055;-66
2023/11/12 10:19:54;;;;;;;5.05;3.80;;;;;;;;;;6294769;28;20054;-65
2023/11/12 10:22:57;;;;;;;4.32;2.08;;;;;;;;;;6285423;28;20045;-66
2023/11/12 10:25:59;;;;;;;5.63;2.40;;;;;;;;;;6290413;28;20044;-66
2023/11/12 10:29:01;;;;;;;4.22;2.92;;;;;;;;;;6291459;28;20570;-66
2023/11/12 10:32:04;;;;;;;11.43;7.80;;;;;;;;;;6273288;28;20553;-65
2023/11/12 10:35:10;;;;;;;11.30;5.47;;;;;;;;;;6299130;28;20090;-66
2023/11/12 10:38:15;;;;;;;9.55;5.28;;;;;;;;;;6287215;28;20043;-67
2023/11/12 10:41:17;;;;;;;15.38;8.98;;;;;;;;;;6289963;28;20712;-66
2023/11/12 10:44:19;;;;;;;11.07;7.90;;;;;;;;;;6284764;28;20052;-66
2023/11/12 10:47:26;;;;;;;19.15;14.70;;;;;;;;;;6285708;28;20105;-67
2023/11/12 10:50:29;;;;;;;16.77;9.50;;;;;;;;;;6294590;28;20131;-67
2023/11/12 10:53:33;;;;;;;6.90;4.88;;;;;;;;;;6274974;28;20538;-67
2023/11/12 10:56:35;;;;;;;8.35;4.63;;;;;;;;;;6287911;28;20044;-67
2023/11/12 10:59:39;;;;;;;7.95;5.13;;;;;;;;;;6292611;28;20048;-67
2023/11/12 11:02:44;;;;;;;10.25;8.50;;;;;;;;;;6289523;28;20060;-67
2023/11/12 11:05:46;;;;;;;19.98;13.20;;;;;;;;;;6291233;28;20066;-67
2023/11/12 11:08:48;;;;;;;10.73;7.03;;;;;;;;;;6296556;28;20554;-67
2023/11/12 11:11:51;;;;;;;11.02;7.40;;;;;;;;;;6287609;28;20126;-68
2023/11/12 11:14:55;;;;;;;9.80;5.13;;;;;;;;;;6272659;28;20056;-67
2023/11/12 11:17:57;;;;;;;7.78;5.25;;;;;;;;;;6305421;28;20131;-67
2023/11/12 11:21:17;;;;;;;7.40;4.78;;;;;;;;;;6286279;28;20548;-66
2023/11/12 11:24:42;;;;;;;13.10;5.22;;;;;;;;;;6270259;28;20052;-66
2023/11/12 11:27:47;;;;;;;6.88;4.15;;;;;;;;;;6302804;28;20582;-65
2023/11/12 11:31:16;;;;;;;6.40;3.40;;;;;;;;;;6286394;28;20063;-67
2023/11/12 11:34:19;;;;;;;16.63;8.52;;;;;;;;;;6290920;28;20149;-66
2023/11/12 11:37:22;;;;;;;7.88;5.35;;;;;;;;;;6289811;28;20135;-65
2023/11/12 11:40:28;;;;;;;5.43;3.67;;;;;;;;;;6292125;28;20052;-65
2023/11/12 11:43:31;;;;;;;11.00;5.57;;;;;;;;;;6308558;28;20130;-65
2023/11/12 11:46:34;;;;;;;8.07;6.10;;;;;;;;;;6301779;28;20047;-66
2023/11/12 11:49:36;;;;;;;5.53;4.22;;;;;;;;;;6291688;28;20040;-66
2023/11/12 11:52:41;;;;;;;5.97;3.08;;;;;;;;;;6285796;28;20063;-65
2023/11/12 11:55:48;;;;;;;7.47;3.60;;;;;;;;;;6286434;28;20224;-66
2023/11/12 11:58:50;;;;;;;6.38;3.03;;;;;;;;;;6248353;28;20049;-66
2023/11/12 12:01:58;;;;;;;6.55;4.05;;;;;;;;;;6294967;28;20071;-66
2023/11/12 12:05:00;;;;;;;4.72;2.92;;;;;;;;;;6292873;28;20041;-65
2023/11/12 12:08:03;;;;;;;12.13;6.95;;;;;;;;;;6256627;28;20050;-65
2023/11/12 12:11:22;;;;;;;51.35;24.63;;;;;;;;;;6294341;28;20541;-65
2023/11/12 12:14:24;;;;;;;12.77;6.22;;;;;;;;;;6281426;28;20055;-66
2023/11/12 12:17:27;;;;;;;7.55;4.30;;;;;;;;;;6305453;28;20040;-65
2023/11/12 12:20:38;;;;;;;13.07;7.38;;;;;;;;;;6288689;28;20160;-65
2023/11/12 12:23:42;;;;;;;4.82;3.10;;;;;;;;;;6278346;28;20549;-65
2023/11/12 12:26:44;;;;;;;4.57;2.30;;;;;;;;;;6299246;28;20124;-66
2023/11/12 12:29:47;;;;;;;20.83;12.35;;;;;;;;;;6301872;28;20494;-66
2023/11/12 12:32:49;;;;;;;14.40;8.48;;;;;;;;;;6297702;28;20048;-66
2023/11/12 12:35:57;;;;;;;6.35;3.90;;;;;;;;;;6287212;28;20047;-65
2023/11/12 12:39:00;;;;;;;8.98;5.95;;;;;;;;;;6303105;28;20101;-66
2023/11/12 12:42:03;;;;;;;8.65;4.55;;;;;;;;;;6298628;28;20526;-65
2023/11/12 12:45:12;;;;;;;4.93;3.13;;;;;;;;;;6297887;28;20487;-66
2023/11/12 12:48:15;;;;;;;13.13;8.15;;;;;;;;;;6285690;28;20068;-66
2023/11/12 12:51:17;;;;;;;46.95;24.67;;;;;;;;;;6290300;28;20114;-66
2023/11/12 12:54:19;;;;;;;28.08;15.35;;;;;;;;;;6298559;28;20049;-66
2023/11/12 12:57:23;;;;;;;9.20;4.43;;;;;;;;;;6298106;28;20106;-66
2023/11/12 13:00:26;;;;;;;5.13;3.75;;;;;;;;;;6285511;28;20071;-66
2023/11/12 13:03:34;;;;;;;22.42;12.82;;;;;;;;;;6304724;28;20074;-66
2023/11/12 13:06:37;;;;;;;46.10;21.45;;;;;;;;;;6298136;28;20055;-65
2023/11/12 13:09:41;;;;;;;120.22;52.40;;;;;;;;;;6298670;28;20575;-67
2023/11/12 13:12:43;;;;;;;69.53;34.28;;;;;;;;;;6296668;28;20139;-66
2023/11/12 13:15:46;;;;;;;11.95;6.18;;;;;;;;;;6299722;28;20646;-66
2023/11/12 13:18:48;;;;;;;20.08;9.85;;;;;;;;;;6304169;28;20078;-66
2023/11/12 13:21:51;;;;;;;9.50;4.93;;;;;;;;;;6295997;28;20091;-65
2023/11/12 13:25:04;;;;;;;7.25;4.85;;;;;;;;;;6300763;28;20123;-66
2023/11/12 13:28:08;;;;;;;8.57;5.30;;;;;;;;;;6294136;28;20059;-66
2023/11/12 13:31:14;;;;;;;9.95;5.75;;;;;;;;;;6283667;28;20535;-66
2023/11/12 13:34:16;;;;;;;54.03;24.88;;;;;;;;;;6285548;28;20044;-66
2023/11/12 13:37:21;;;;;;;79.00;31.98;;;;;;;;;;6288644;28;20040;-66
2023/11/12 13:40:24;;;;;;;51.40;23.90;;;;;;;;;;6294208;28;20642;-66
2023/11/12 13:43:26;;;;;;;50.75;22.38;;;;;;;;;;6288449;28;20438;-66
2023/11/12 13:46:28;;;;;;;3.95;2.47;;;;;;;;;;6290025;28;20051;-66
2023/11/12 13:49:30;;;;;;;9.52;4.45;;;;;;;;;;6290772;28;20036;-66
2023/11/12 13:52:32;;;;;;;8.13;4.47;;;;;;;;;;6288663;28;20143;-67
2023/11/12 13:55:37;;;;;;;5.53;3.05;;;;;;;;;;6290937;28;20056;-67
2023/11/12 13:58:42;;;;;;;6.90;2.15;;;;;;;;;;6289011;28;20158;-66
2023/11/12 14:01:45;;;;;;;5.72;3.67;;;;;;;;;;6288368;28;20063;-66
2023/11/12 14:04:48;;;;;;;13.00;2.85;;;;;;;;;;6280823;28;20078;-67
2023/11/12 14:07:50;;;;;;;6.10;2.70;;;;;;;;;;6285718;28;20097;-67
2023/11/12 14:10:55;;;;;;;4.25;3.00;;;;;;;;;;6286461;28;20056;-67
2023/11/12 14:13:57;;;;;;;7.32;2.63;;;;;;;;;;6289428;28;20101;-67
2023/11/12 14:17:03;;;;;;;4.65;2.55;;;;;;;;;;6285904;28;20537;-65
2023/11/12 14:20:06;;;;;;;3.80;2.15;;;;;;;;;;6289403;28;20079;-66
2023/11/12 14:23:09;;;;;;;3.42;2.78;;;;;;;;;;6286079;28;20048;-67
2023/11/12 14:26:12;;;;;;;7.40;2.55;;;;;;;;;;6287244;28;20532;-67
2023/11/12 14:29:15;;;;;;;5.47;3.53;;;;;;;;;;6286081;28;20143;-67
2023/11/12 14:32:17;;;;;;;3.95;2.45;;;;;;;;;;6284553;28;20059;-67
2023/11/12 14:35:22;;;;;;;9.68;4.18;;;;;;;;;;6283631;28;20053;-66
2023/11/12 14:38:24;;;;;;;8.05;5.25;;;;;;;;;;6283708;28;20056;-66
2023/11/12 14:41:27;;;;;;;6.70;3.72;;;;;;;;;;6283996;28;20052;-66
2023/11/12 14:44:30;;;;;;;8.32;5.47;;;;;;;;;;6285189;28;20441;-66
2023/11/12 14:47:35;;;;;;;8.00;6.25;;;;;;;;;;6282913;28;20045;-65
2023/11/12 14:50:37;;;;;;;9.45;6.53;;;;;;;;;;6284180;28;20459;-66
2023/11/12 14:53:39;;;;;;;7.45;5.43;;;;;;;;;;6287005;28;20048;-66
2023/11/12 14:56:41;;;;;;;6.32;5.05;;;;;;;;;;6285576;28;20053;-66
2023/11/12 14:59:44;;;;;;;64.53;29.00;;;;;;;;;;6285277;28;20511;-67
2023/11/12 15:02:46;;;;;;;23.13;12.18;;;;;;;;;;6286384;28;20623;-66
2023/11/12 15:05:48;;;;;;;54.88;31.17;;;;;;;;;;6283029;28;20053;-66
2023/11/12 15:08:50;;;;;;;84.93;43.63;;;;;;;;;;6282105;28;20063;-66
2023/11/12 15:11:52;;;;;;;99.03;43.47;;;;;;;;;;6266673;28;20044;-66
2023/11/12 15:14:54;;;;;;;12.85;6.47;;;;;;;;;;6291028;28;20404;-67
2023/11/12 15:17:56;;;;;;;21.58;5.10;;;;;;;;;;6288073;28;20052;-66
2023/11/12 15:21:06;;;;;;;11.07;4.60;;;;;;;;;;6285801;28;20071;-67
2023/11/12 15:24:11;;;;;;;19.83;8.52;;;;;;;;;;6283485;28;20044;-66
2023/11/12 15:27:13;;;;;;;16.25;7.85;;;;;;;;;;6280809;28;20112;-65
2023/11/12 15:30:16;;;;;;;21.48;10.57;;;;;;;;;;6280992;28;20585;-65
2023/11/12 15:33:19;;;;;;;21.52;7.72;;;;;;;;;;6286490;28;20590;-66
2023/11/12 15:36:21;;;;;;;138.75;19.40;;;;;;;;;;6281514;28;20541;-66
2023/11/12 15:39:23;;;;;;;23.85;6.80;;;;;;;;;;6281791;28;20048;-65
2023/11/12 15:42:26;;;;;;;32.67;18.80;;;;;;;;;;6283638;28;20052;-65
2023/11/12 15:45:28;;;;;;;33.88;20.17;;;;;;;;;;6287849;28;20561;-65
2023/11/12 15:48:30;;;;;;;15.50;11.05;;;;;;;;;;6285164;28;20115;-65
2023/11/12 15:51:33;;;;;;;17.90;10.95;;;;;;;;;;6288200;28;20048;-66
2023/11/12 15:54:35;;;;;;;20.30;11.45;;;;;;;;;;6288664;28;20079;-65
2023/11/12 15:57:39;;;;;;;14.65;8.98;;;;;;;;;;6270655;28;20467;-66
2023/11/12 16:00:41;;;;;;;17.35;10.95;;;;;;;;;;6279190;28;20589;-65
2023/11/12 16:03:43;;;;;;;19.98;11.77;;;;;;;;;;6281703;28;20661;-65
2023/11/12 16:06:46;;;;;;;12.93;7.22;;;;;;;;;;6281002;28;20813;-65
2023/11/12 16:09:48;;;;;;;8.80;6.32;;;;;;;;;;6280544;28;20538;-64
2023/11/12 16:12:50;;;;;;;12.90;8.93;;;;;;;;;;6278972;28;20045;-65
2023/11/12 16:15:52;;;;;;;17.90;12.60;;;;;;;;;;6280989;28;20040;-65
2023/11/12 16:18:55;;;;;;;18.08;11.80;;;;;;;;;;6281633;28;20045;-65
2023/11/12 16:21:57;;;;;;;16.30;12.38;;;;;;;;;;6283161;28;20036;-65
2023/11/12 16:24:59;;;;;;;17.92;9.88;;;;;;;;;;6281570;28;20068;-65
2023/11/12 16:28:01;;;;;;;9.35;5.97;;;;;;;;;;6282644;28;20043;-65
2023/11/12 16:31:04;;;;;;;23.67;13.57;;;;;;;;;;6284218;28;20194;-65
2023/11/12 16:34:06;;;;;;;24.67;17.85;;;;;;;;;;6279005;28;20068;-64
2023/11/12 16:37:08;;;;;;;13.07;8.85;;;;;;;;;;6283210;28;20040;-65
2023/11/12 16:40:12;;;;;;;11.32;6.93;;;;;;;;;;6285898;28;20048;-65
2023/11/12 16:43:14;;;;;;;8.13;7.05;;;;;;;;;;6283851;28;20055;-65
2023/11/12 16:46:17;;;;;;;14.23;5.93;;;;;;;;;;6281479;28;20068;-65
2023/11/12 16:49:19;;;;;;;7.07;6.38;;;;;;;;;;6281794;28;20515;-65
2023/11/12 16:52:21;;;;;;;12.75;8.10;;;;;;;;;;6280736;28;20605;-65
2023/11/12 16:55:23;;;;;;;9.55;6.43;;;;;;;;;;6279362;28;20459;-66
2023/11/12 16:58:26;;;;;;;9.25;6.38;;;;;;;;;;6284202;28;20052;-66
2023/11/12 17:01:28;;;;;;;10.55;5.95;;;;;;;;;;6281572;28;20041;-66
2023/11/12 17:04:30;;;;;;;12.02;7.68;;;;;;;;;;6280745;28;20906;-65
2023/11/12 17:07:32;;;;;;;12.00;7.90;;;;;;;;;;6290077;28;20068;-65
2023/11/12 17:10:36;;;;;;;12.00;8.18;;;;;;;;;;6262905;28;20047;-64
2023/11/12 17:13:38;;;;;;;16.92;10.20;;;;;;;;;;6286003;28;20047;-64
2023/11/12 17:16:47;;;;;;;23.13;13.45;;;;;;;;;;6283631;28;20161;-64
2023/11/12 17:19:50;;;;;;;13.95;9.68;;;;;;;;;;6285706;28;20052;-65
2023/11/12 17:22:52;;;;;;;18.02;12.40;;;;;;;;;;6293463;28;20048;-65
2023/11/12 17:25:55;;;;;;;16.13;11.98;;;;;;;;;;6283845;28;20047;-65
2023/11/12 17:28:58;;;;;;;20.50;15.15;;;;;;;;;;6283851;28;20040;-65
2023/11/12 17:32:01;;;;;;;18.48;12.15;;;;;;;;;;6287587;28;20827;-65
2023/11/12 17:35:04;;;;;;;21.23;13.25;;;;;;;;;;6280059;28;20044;-65
2023/11/12 17:38:06;;;;;;;24.13;14.52;;;;;;;;;;6289902;28;20132;-65
2023/11/12 17:41:09;;;;;;;22.80;12.98;;;;;;;;;;6290485;28;20051;-65
2023/11/12 17:44:11;;;;;;;20.90;12.98;;;;;;;;;;6285064;28;20043;-65
2023/11/12 17:47:13;;;;;;;20.17;12.27;;;;;;;;;;6287729;28;20853;-66
2023/11/12 17:50:15;;;;;;;19.23;14.35;;;;;;;;;;6282409;28;20076;-66
2023/11/12 17:53:17;;;;;;;20.30;13.30;;;;;;;;;;6283511;28;20127;-66
2023/11/12 17:56:19;;;;;;;27.10;19.50;;;;;;;;;;6287632;28;20045;-66
2023/11/12 17:59:22;;;;;;;76.80;39.63;;;;;;;;;;6290058;28;20790;-65
2023/11/12 18:02:24;;;;;;;37.28;21.52;;;;;;;;;;6286932;28;20048;-66
2023/11/12 18:05:26;;;;;;;31.65;22.77;;;;;;;;;;6285222;28;20590;-65
2023/11/12 18:08:33;;;;;;;31.80;24.10;;;;;;;;;;6286625;28;20036;-66
2023/11/12 18:11:35;;;;;;;41.03;26.95;;;;;;;;;;6289978;28;20416;-65
2023/11/12 18:14:37;;;;;;;43.58;27.40;;;;;;;;;;6284668;28;20083;-65
2023/11/12 18:17:40;;;;;;;42.42;26.50;;;;;;;;;;6290351;28;20812;-66
2023/11/12 18:20:44;;;;;;;22.05;14.13;;;;;;;;;;6285992;28;20044;-66
2023/11/12 18:23:46;;;;;;;24.02;14.88;;;;;;;;;;6288824;28;20546;-66
2023/11/12 18:26:48;;;;;;;18.67;13.98;;;;;;;;;;6287437;28;20033;-66